Fort Smith, Montana
Current Conditions -  °F | °C
As of 3:55 PM on Saturday 25 Oct 2014 (Local Time) from KU68 Reporting Station
Clear Clear  
Wind Chill: 77°   Ceiling: Unl
Heat Index: 77°   Visibility: 10mi
Dew Point: 27°   Wind: 10mph
Humidity: 16%   Direction: 140°SE
Pressure: 29.84"   Gusts: NA
Location:  45.3126°N, 107.936°W
Report Text: KU68 252155Z AUTO 14009KT 10SM CLR 25/M03 A2984 RMK AO2 PWINO
Loading
Personal Weather Stations






























Interactive Weather Map
Tropical Storm Tracking
New forecast layout! Learn more

10-Day Weather Forecast

Advertisements
Track Severe Weather on mobile